Airfield :
LOGIN :

Register | Disclaimer

   EN    FR    IT 

 










Legend :    VFR   Marginal VFR   IFR   Intensive IFR   Very Intensive IFR
Visi :
Ceiling :
>= 8 km
>= 3000ft
5 to 8 km
1000 to 3000 ft
1500m to 5 km
500 to 1000 ft
800 to 1500m
200 to 500 ft
< 800m
< 200 ft
Symbols :   Thunderstorms  Fog  Heavy snow  Heavy precipitations  Wind > 20 kt
SIGMETs :     Misc.  Thunderstorms  Icing  Turbulence  Mountain Waves  Volcanic Ashes






- Airport Elevation : 2001 ft
- IATA code : MAD


LEMD - Madrid

CURRENT METAR :
  • 260500Z 34003KT CAVOK 07/03 Q1023 NOSIG

EXPIRED METARs :
  • 260430Z 34003KT CAVOK 08/03 Q1023 NOSIG
  • 260400Z 34004KT CAVOK 08/03 Q1022 NOSIG
  • 260330Z 34003KT CAVOK 08/03 Q1022 NOSIG
  • 260300Z 34002KT CAVOK 08/03 Q1022 NOSIG
  • 260230Z 34004KT CAVOK 09/03 Q1022 NOSIG

TAF TAF LEMD
Valid from the 26 at 00:00 until the 27 at 06:00 UTC


252300Z 2600/2706 VRB05KT CAVOK TX21/2615Z TN06/2606Z
PROB40
TEMPO 2600/2609 02010KT
BECMG 2618/2619 02007KT



MET'MAP, your aeronautical weather chart ! - Copyright ORBIFLY December 2007 - Disclaimer

ORBIFLY MET'MAP TEAM :

Programming & Development : Alexandra Zaïnal
Concept & original design : Baudouin d'Aumeries
Assistance for programming : Marc-Olivier Méhu
Technical & hardware support : Manuel Goepfert

Contact : metmap@orbifly.com




SOURCES & CREDITS :

   NOAA